createdAt,value
2022-10-24T00:01:56.325Z,30.02
2022-10-24T00:04:24.923Z,26.90
2022-10-24T00:06:53.159Z,18.63
2022-10-24T00:09:22.896Z,16.10
2022-10-24T00:11:51.073Z,15.63
2022-10-24T00:14:19.693Z,17.40
2022-10-24T00:16:48.015Z,18.70
2022-10-24T00:19:16.495Z,23.27
2022-10-24T00:21:44.691Z,19.20
2022-10-24T00:24:13.269Z,16.60
2022-10-24T00:26:43.174Z,13.10
2022-10-24T00:29:12.182Z,12.85
2022-10-24T00:31:40.543Z,13.07
2022-10-24T00:34:09.264Z,13.73
2022-10-24T00:36:37.667Z,13.38
2022-10-24T00:39:06.017Z,13.23
2022-10-24T00:41:36.804Z,12.63
2022-10-24T00:44:19.766Z,11.95
2022-10-24T00:46:51.766Z,14.35
2022-10-24T00:49:23.829Z,12.18
2022-10-24T00:51:57.056Z,11.77
2022-10-24T00:54:25.726Z,12.63
2022-10-24T00:57:01.555Z,12.85
2022-10-24T00:59:32.149Z,11.85
2022-10-24T01:02:00.461Z,10.75
2022-10-24T01:04:29.420Z,10.68
2022-10-24T01:07:10.262Z,11.15
2022-10-24T01:09:55.984Z,12.35
2022-10-24T01:12:31.974Z,11.95
2022-10-24T01:15:10.935Z,10.88
2022-10-24T01:17:46.130Z,10.32
2022-10-24T01:20:34.611Z,8.68
2022-10-24T01:23:11.371Z,9.38
2022-10-24T01:25:48.420Z,10.13
2022-10-24T01:28:20.103Z,9.68
2022-10-24T01:30:54.635Z,10.43
2022-10-24T01:33:28.056Z,10.30
2022-10-24T01:36:00.253Z,9.40
2022-10-24T01:38:33.685Z,9.10
2022-10-24T01:41:05.993Z,8.52
2022-10-24T01:43:40.254Z,10.27
2022-10-24T01:46:14.044Z,8.88
2022-10-24T01:48:46.837Z,8.75
2022-10-24T01:51:17.720Z,8.93
2022-10-24T01:53:47.266Z,9.15
2022-10-24T01:56:15.690Z,10.02
2022-10-24T01:58:43.961Z,10.18
2022-10-24T02:01:17.321Z,11.98
2022-10-24T02:03:51.219Z,9.73
2022-10-24T02:06:24.887Z,13.13
2022-10-24T02:08:58.479Z,15.15
2022-10-24T02:11:27.035Z,11.82
2022-10-24T02:13:58.865Z,9.85
2022-10-24T02:16:28.963Z,10.10
2022-10-24T02:18:58.355Z,9.50
2022-10-24T02:21:33.077Z,9.60
2022-10-24T02:24:07.440Z,8.52
2022-10-24T02:26:40.715Z,9.20
2022-10-24T02:29:15.235Z,9.68
2022-10-24T02:31:51.454Z,10.55
2022-10-24T02:34:21.191Z,9.23
2022-10-24T02:36:52.103Z,8.63
2022-10-24T02:39:21.221Z,9.63
2022-10-24T02:41:52.186Z,9.18
2022-10-24T02:44:21.168Z,11.07
2022-10-24T02:46:53.840Z,9.07
2022-10-24T02:49:22.366Z,8.02
2022-10-24T02:51:52.206Z,10.93
2022-10-24T02:54:20.666Z,9.70
2022-10-24T02:56:55.809Z,9.10
2022-10-24T02:59:24.403Z,8.85
2022-10-24T03:01:54.282Z,7.97
2022-10-24T03:04:22.865Z,8.68
2022-10-24T03:06:51.354Z,8.73
2022-10-24T03:09:19.503Z,8.48
2022-10-24T03:11:48.263Z,8.63
2022-10-24T03:14:16.447Z,8.85
2022-10-24T03:16:44.882Z,8.65
2022-10-24T03:19:14.514Z,8.40
2022-10-24T03:21:43.004Z,8.90
2022-10-24T03:24:11.405Z,8.15
2022-10-24T03:26:39.835Z,8.57
2022-10-24T03:29:08.085Z,8.95
2022-10-24T03:31:36.538Z,7.15
2022-10-24T03:34:04.796Z,8.38
2022-10-24T03:36:34.648Z,8.27
2022-10-24T03:39:02.974Z,8.25
2022-10-24T03:41:31.709Z,8.48
2022-10-24T03:43:59.912Z,8.00
2022-10-24T03:46:28.606Z,8.35
2022-10-24T03:48:56.771Z,8.57
2022-10-24T03:51:25.242Z,8.95
2022-10-24T03:53:55.136Z,9.13
2022-10-24T03:56:23.849Z,11.18
2022-10-24T03:58:52.319Z,9.18
2022-10-24T04:01:20.773Z,9.05
2022-10-24T04:03:49.066Z,8.70
2022-10-24T04:06:17.556Z,9.55
2022-10-24T04:08:45.747Z,8.68
2022-10-24T04:11:15.453Z,7.65
2022-10-24T04:13:43.627Z,7.95
2022-10-24T04:16:12.017Z,7.75
2022-10-24T04:18:40.185Z,7.20
2022-10-24T04:21:08.549Z,7.13
2022-10-24T04:23:40.998Z,7.60
2022-10-24T04:26:09.907Z,7.38
2022-10-24T04:28:39.416Z,6.97
2022-10-24T04:31:08.048Z,7.93
2022-10-24T04:33:36.880Z,7.88
2022-10-24T04:36:06.069Z,9.70
2022-10-24T04:38:34.547Z,9.05
2022-10-24T04:41:03.226Z,8.80
2022-10-24T04:43:31.373Z,8.68
2022-10-24T04:46:02.491Z,8.05
2022-10-24T04:48:30.902Z,7.43
2022-10-24T04:50:59.446Z,8.10
2022-10-24T04:53:27.728Z,8.88
2022-10-24T04:55:56.153Z,8.98
2022-10-24T04:58:24.352Z,8.35
2022-10-24T05:00:52.922Z,8.60
2022-10-24T05:03:23.676Z,8.48
2022-10-24T05:05:52.069Z,8.95
2022-10-24T05:08:20.358Z,8.20
2022-10-24T05:10:48.773Z,7.95
2022-10-24T05:13:17.149Z,8.68
2022-10-24T05:15:45.794Z,9.57
2022-10-24T05:18:14.155Z,8.38
2022-10-24T05:20:43.876Z,8.50
2022-10-24T05:23:12.068Z,8.35
2022-10-24T05:25:40.719Z,8.10
2022-10-24T05:28:09.055Z,9.00
2022-10-24T05:30:37.495Z,8.43
2022-10-24T05:33:05.780Z,8.45
2022-10-24T05:35:34.441Z,8.43
2022-10-24T05:38:04.471Z,9.15
2022-10-24T05:40:33.088Z,8.70
2022-10-24T05:43:01.262Z,8.77
2022-10-24T05:45:30.017Z,8.38
2022-10-24T05:47:58.225Z,7.47
2022-10-24T05:50:27.467Z,8.52
2022-10-24T05:52:55.988Z,10.43
2022-10-24T05:55:25.723Z,10.82
2022-10-24T05:57:54.273Z,11.98
2022-10-24T06:00:23.117Z,10.10
2022-10-24T06:02:51.461Z,10.20
2022-10-24T06:05:20.920Z,11.30
2022-10-24T06:07:49.428Z,8.32
2022-10-24T06:10:18.133Z,8.23
2022-10-24T06:12:48.150Z,8.40
2022-10-24T06:15:16.888Z,8.07
2022-10-24T06:17:45.043Z,7.35
2022-10-24T06:20:13.530Z,8.25
2022-10-24T06:22:42.167Z,8.15
2022-10-24T06:25:11.335Z,7.85
2022-10-24T06:27:39.802Z,7.53
2022-10-24T06:30:11.931Z,7.18
2022-10-24T06:32:43.745Z,7.50
2022-10-24T06:35:15.835Z,7.47
2022-10-24T06:37:47.246Z,7.35
2022-10-24T06:40:17.256Z,8.40
2022-10-24T06:42:45.870Z,7.93
2022-10-24T06:45:16.159Z,8.60
2022-10-24T06:47:44.863Z,7.82
2022-10-24T06:50:13.563Z,8.13
2022-10-24T06:52:41.859Z,8.77
2022-10-24T06:55:10.833Z,8.43
2022-10-24T06:57:39.031Z,9.55
2022-10-24T07:00:09.018Z,8.57
2022-10-24T07:02:38.627Z,8.90
2022-10-24T07:05:09.245Z,7.93
2022-10-24T07:07:38.115Z,8.95
2022-10-24T07:10:07.777Z,8.63
2022-10-24T07:12:35.934Z,9.10
2022-10-24T07:15:05.094Z,9.05
2022-10-24T07:17:41.318Z,8.80
2022-10-24T07:20:11.583Z,9.07
2022-10-24T07:22:40.254Z,7.97
2022-10-24T07:25:09.625Z,8.02
2022-10-24T07:27:37.958Z,14.10
2022-10-24T07:30:07.480Z,14.70
2022-10-24T07:32:36.082Z,11.75
2022-10-24T07:35:06.565Z,13.35
2022-10-24T07:37:35.082Z,11.05
2022-10-24T07:40:03.498Z,13.93
2022-10-24T07:42:31.727Z,9.32
2022-10-24T07:45:00.134Z,10.20
2022-10-24T07:47:28.319Z,10.65
2022-10-24T07:49:56.963Z,9.88
2022-10-24T07:52:26.721Z,8.93
2022-10-24T07:54:55.715Z,9.30
2022-10-24T07:57:23.914Z,10.60
2022-10-24T07:59:52.286Z,9.85
2022-10-24T08:02:20.638Z,10.15
2022-10-24T08:04:48.958Z,10.20
2022-10-24T08:07:17.219Z,9.68
2022-10-24T08:09:48.470Z,10.93
2022-10-24T08:12:16.748Z,11.40
2022-10-24T08:14:45.399Z,11.32
2022-10-24T08:17:13.849Z,10.00
2022-10-24T08:19:44.024Z,10.20
2022-10-24T08:22:12.881Z,11.90
2022-10-24T08:24:41.297Z,10.70
2022-10-24T08:27:10.907Z,8.70
2022-10-24T08:29:39.790Z,10.88
2022-10-24T08:32:08.142Z,9.25
2022-10-24T08:34:38.431Z,9.68
2022-10-24T08:37:06.957Z,10.40
2022-10-24T08:39:35.371Z,11.32
2022-10-24T08:42:06.257Z,9.40
2022-10-24T08:44:40.043Z,10.15
2022-10-24T08:47:17.303Z,8.80
2022-10-24T08:49:51.046Z,9.90
2022-10-24T08:52:28.046Z,9.10
2022-10-24T08:54:57.587Z,10.50
2022-10-24T08:57:29.680Z,10.35
2022-10-24T09:00:03.470Z,8.95
2022-10-24T09:02:34.741Z,8.45
2022-10-24T09:05:10.640Z,8.55
2022-10-24T09:07:39.240Z,9.10
2022-10-24T09:10:16.668Z,9.32
2022-10-24T09:12:44.811Z,9.10
2022-10-24T09:15:29.298Z,8.50
2022-10-24T09:17:59.320Z,9.50
2022-10-24T09:20:30.209Z,9.00
2022-10-24T09:23:02.160Z,7.68
2022-10-24T09:25:33.314Z,9.27
2022-10-24T09:28:04.554Z,9.80
2022-10-24T09:30:36.396Z,9.52
2022-10-24T09:33:12.831Z,7.97
2022-10-24T09:35:41.663Z,8.77
2022-10-24T09:38:33.571Z,9.05
2022-10-24T09:41:05.935Z,8.02
2022-10-24T09:43:40.031Z,7.68
2022-10-24T09:46:11.751Z,8.75
2022-10-24T09:48:55.527Z,8.15
2022-10-24T09:51:32.303Z,8.98
2022-10-24T09:54:07.550Z,8.88
2022-10-24T09:56:41.022Z,11.55
2022-10-24T09:59:31.937Z,8.80
2022-10-24T10:02:23.200Z,8.75
2022-10-24T10:05:16.012Z,8.40
2022-10-24T10:07:48.423Z,7.40
2022-10-24T10:10:41.485Z,7.75
2022-10-24T10:13:23.552Z,9.63
2022-10-24T10:15:54.641Z,8.63
2022-10-24T10:18:42.381Z,10.43
2022-10-24T10:21:13.772Z,8.95
2022-10-24T10:23:45.043Z,8.23
2022-10-24T10:26:23.647Z,7.88
2022-10-24T10:28:59.399Z,9.70
2022-10-24T10:31:35.417Z,8.48
2022-10-24T10:34:21.474Z,7.88
2022-10-24T10:37:07.949Z,7.35
2022-10-24T10:39:57.944Z,7.97
2022-10-24T10:42:34.820Z,8.60
2022-10-24T10:45:19.339Z,6.75
2022-10-24T10:48:00.918Z,8.00
2022-10-24T10:50:37.618Z,7.00
2022-10-24T10:53:21.513Z,7.88
2022-10-24T10:56:00.237Z,7.97
2022-10-24T11:01:16.807Z,7.85
2022-10-24T11:03:50.525Z,8.65
2022-10-24T11:06:35.463Z,7.28
2022-10-24T11:09:30.058Z,7.38
2022-10-24T11:12:06.418Z,7.45
2022-10-24T11:14:37.496Z,8.30
2022-10-24T11:17:13.886Z,7.18
2022-10-24T11:19:49.469Z,8.35
2022-10-24T11:22:24.377Z,6.93
2022-10-24T11:24:58.730Z,7.05
2022-10-24T11:27:32.593Z,6.70
2022-10-24T11:30:09.857Z,7.60
2022-10-24T11:32:42.132Z,7.35
2022-10-24T11:35:22.334Z,6.90
2022-10-24T11:37:57.094Z,6.00
2022-10-24T11:43:03.023Z,7.95
2022-10-24T11:45:39.773Z,6.93
2022-10-24T11:48:16.046Z,7.95
2022-10-24T11:50:49.296Z,7.30
2022-10-24T11:53:48.286Z,6.38
2022-10-24T11:56:23.586Z,6.25
2022-10-24T11:58:59.603Z,6.43
2022-10-24T12:02:16.578Z,5.60
2022-10-24T12:05:02.177Z,5.72
2022-10-24T12:07:53.950Z,5.32
2022-10-24T12:10:42.118Z,5.53
2022-10-24T12:13:26.143Z,6.47
2022-10-24T12:16:00.912Z,5.97
2022-10-24T12:18:33.345Z,5.72
2022-10-24T12:21:06.064Z,33.88
2022-10-24T12:23:34.832Z,21.40
2022-10-24T12:26:07.818Z,8.95
2022-10-24T12:28:38.155Z,9.82
2022-10-24T12:31:13.062Z,7.40
2022-10-24T12:33:42.265Z,6.10
2022-10-24T12:36:11.358Z,5.82
2022-10-24T12:39:09.940Z,4.93
2022-10-24T12:41:42.674Z,6.05
2022-10-24T12:44:41.163Z,5.70
2022-10-24T12:47:40.825Z,5.43
2022-10-24T12:50:55.243Z,5.40
2022-10-24T12:54:00.744Z,4.75
2022-10-24T12:56:31.570Z,5.90
2022-10-24T12:59:18.151Z,4.80
2022-10-24T13:01:47.791Z,5.13
2022-10-24T13:04:53.375Z,5.35
2022-10-24T13:07:41.603Z,5.25
2022-10-24T13:10:31.976Z,5.53
2022-10-24T13:13:27.491Z,6.75
2022-10-24T13:16:04.217Z,5.85
2022-10-24T13:18:44.924Z,6.78
2022-10-24T13:21:24.312Z,4.32
2022-10-24T13:23:53.197Z,4.75
2022-10-24T13:26:38.078Z,5.15
2022-10-24T13:29:12.479Z,4.13
2022-10-24T13:31:48.091Z,4.60
2022-10-24T13:34:30.276Z,6.00
2022-10-24T13:37:07.201Z,4.78
2022-10-24T13:39:41.327Z,5.32
2022-10-24T13:42:27.775Z,5.25
2022-10-24T13:45:00.670Z,4.93
2022-10-24T13:47:37.211Z,5.78
2022-10-24T13:50:12.709Z,6.90
2022-10-24T13:52:50.069Z,6.00
2022-10-24T13:55:24.635Z,5.68
2022-10-24T13:57:56.657Z,4.50
2022-10-24T14:00:27.868Z,5.05
2022-10-24T14:02:59.822Z,5.28
2022-10-24T14:05:33.515Z,4.82
2022-10-24T14:08:02.928Z,5.80
2022-10-24T14:10:32.029Z,5.10
2022-10-24T14:13:01.330Z,5.43
2022-10-24T14:15:32.377Z,5.00
2022-10-24T14:18:04.726Z,5.32
2022-10-24T14:20:35.322Z,4.88
2022-10-24T14:23:04.123Z,5.95
2022-10-24T14:25:36.502Z,5.43
2022-10-24T14:28:15.391Z,5.40
2022-10-24T14:30:54.512Z,5.53
2022-10-24T14:33:26.783Z,5.53
2022-10-24T14:35:57.965Z,5.25
2022-10-24T14:38:28.059Z,5.47
2022-10-24T14:41:08.304Z,6.38
2022-10-24T14:43:41.959Z,6.28
2022-10-24T14:46:32.254Z,5.68
2022-10-24T14:49:21.367Z,6.85
2022-10-24T14:54:23.453Z,6.30
2022-10-24T14:56:54.404Z,6.18
2022-10-24T14:59:27.163Z,6.40
2022-10-24T15:01:57.443Z,5.95
2022-10-24T15:04:37.466Z,5.80
2022-10-24T15:07:16.256Z,6.28
2022-10-24T15:09:56.222Z,7.63
2022-10-24T15:12:38.171Z,7.65
2022-10-24T15:15:27.661Z,7.03
2022-10-24T15:18:00.516Z,6.25
2022-10-24T15:20:35.828Z,6.35
2022-10-24T15:23:04.874Z,6.65
2022-10-24T15:25:38.049Z,6.72
2022-10-24T15:28:08.928Z,7.55
2022-10-24T15:30:38.672Z,6.97
2022-10-24T15:33:07.665Z,7.50
2022-10-24T15:35:41.501Z,8.10
2022-10-24T15:38:15.249Z,8.05
2022-10-24T15:40:45.665Z,7.90
2022-10-24T15:43:15.071Z,9.50
2022-10-24T15:45:44.099Z,7.85
2022-10-24T15:48:12.379Z,7.57
2022-10-24T15:50:46.601Z,8.88
2022-10-24T15:53:18.486Z,9.73
2022-10-24T15:55:46.862Z,19.73
2022-10-24T15:58:16.791Z,12.07
2022-10-24T16:00:46.183Z,8.98
2022-10-24T16:03:17.723Z,10.38
2022-10-24T16:05:52.258Z,9.15
2022-10-24T16:08:21.549Z,8.88
2022-10-24T16:10:51.566Z,10.50
2022-10-24T16:13:21.983Z,10.95
2022-10-24T16:15:50.819Z,11.07
2022-10-24T16:18:19.273Z,9.75
2022-10-24T16:20:49.269Z,10.35
2022-10-24T16:23:17.785Z,8.75
2022-10-24T16:25:46.580Z,8.23
2022-10-24T16:28:15.721Z,8.15
2022-10-24T16:30:44.707Z,8.50
2022-10-24T16:33:13.178Z,8.00
2022-10-24T16:35:42.190Z,8.95
2022-10-24T16:38:12.505Z,7.72
2022-10-24T16:40:43.052Z,9.15
2022-10-24T16:43:13.225Z,9.30
2022-10-24T16:45:42.734Z,9.65
2022-10-24T16:48:11.335Z,8.27
2022-10-24T16:50:43.942Z,9.20
2022-10-24T16:53:14.572Z,10.45
2022-10-24T16:55:48.421Z,12.35
2022-10-24T16:58:16.945Z,10.70
2022-10-24T17:00:46.011Z,10.98
2022-10-24T17:03:29.700Z,10.05
2022-10-24T17:05:58.641Z,10.25
2022-10-24T17:08:28.447Z,8.48
2022-10-24T17:10:57.885Z,9.60
2022-10-24T17:13:26.852Z,11.32
2022-10-24T17:15:56.247Z,8.70
2022-10-24T17:18:25.536Z,8.93
2022-10-24T17:21:00.079Z,10.85
2022-10-24T17:23:30.515Z,8.60
2022-10-24T17:26:00.159Z,8.45
2022-10-24T17:28:33.141Z,7.28
2022-10-24T17:31:02.071Z,7.72
2022-10-24T17:33:30.815Z,6.88
2022-10-24T17:35:59.788Z,8.60
2022-10-24T17:38:39.335Z,7.30
2022-10-24T17:41:18.144Z,6.55
2022-10-24T17:43:46.820Z,7.63
2022-10-24T17:46:15.876Z,6.05
2022-10-24T17:48:44.446Z,6.82
2022-10-24T17:51:14.995Z,6.32
2022-10-24T17:53:44.884Z,5.57
2022-10-24T17:56:13.748Z,5.85
2022-10-24T17:58:42.350Z,6.07
2022-10-24T18:01:12.755Z,5.47
2022-10-24T18:03:44.479Z,6.32
2022-10-24T18:06:14.377Z,5.85
2022-10-24T18:08:44.839Z,9.02
2022-10-24T18:11:14.839Z,6.75
2022-10-24T18:13:43.839Z,6.15
2022-10-24T18:16:14.983Z,6.50
2022-10-24T18:18:44.765Z,7.18
2022-10-24T18:23:52.788Z,8.88
2022-10-24T18:26:24.269Z,6.47
2022-10-24T18:28:55.598Z,7.40
2022-10-24T18:31:29.019Z,8.88
2022-10-24T18:34:07.490Z,8.20
2022-10-24T18:36:38.262Z,7.57
2022-10-24T18:39:08.924Z,9.05
2022-10-24T18:41:47.927Z,8.45
2022-10-24T18:44:28.882Z,6.93
2022-10-24T18:47:02.518Z,7.53
2022-10-24T18:49:33.718Z,6.35
2022-10-24T18:52:17.300Z,5.97
2022-10-24T18:54:59.110Z,6.13
2022-10-24T18:57:31.254Z,5.78
2022-10-24T19:00:01.888Z,7.10
2022-10-24T19:02:40.532Z,7.20
2022-10-24T19:05:18.690Z,8.32
2022-10-24T19:07:50.017Z,8.45
2022-10-24T19:10:24.500Z,7.15
2022-10-24T19:12:57.442Z,7.75
2022-10-24T19:15:28.064Z,7.47
2022-10-24T19:17:58.550Z,7.78
2022-10-24T19:20:32.354Z,8.55
2022-10-24T19:23:05.128Z,7.55
2022-10-24T19:25:36.325Z,6.63
2022-10-24T19:28:06.353Z,6.75
2022-10-24T19:30:37.611Z,6.97
2022-10-24T19:33:08.170Z,6.82
2022-10-24T19:35:38.501Z,6.00
2022-10-24T19:38:08.928Z,6.85
2022-10-24T19:40:46.944Z,6.53
2022-10-24T19:43:17.395Z,7.20
2022-10-24T19:45:50.364Z,8.25
2022-10-24T19:48:33.287Z,8.02
2022-10-24T19:51:06.503Z,9.25
2022-10-24T19:53:38.595Z,7.90
2022-10-24T19:56:11.670Z,8.07
2022-10-24T19:58:42.011Z,8.45
2022-10-24T20:01:12.912Z,8.75
2022-10-24T20:03:43.159Z,7.57
2022-10-24T20:06:12.339Z,8.52
2022-10-24T20:08:42.877Z,8.57
2022-10-24T20:11:12.485Z,8.20
2022-10-24T20:13:40.972Z,6.97
2022-10-24T20:16:10.402Z,7.38
2022-10-24T20:21:11.464Z,7.25
2022-10-24T20:23:41.567Z,7.13
2022-10-24T20:26:13.229Z,7.07
2022-10-24T20:28:44.096Z,6.57
2022-10-24T20:31:20.714Z,7.03
2022-10-24T20:33:49.406Z,6.13
2022-10-24T20:36:18.316Z,6.38
2022-10-24T20:38:46.796Z,6.85
2022-10-24T20:41:16.537Z,6.93
2022-10-24T20:43:44.996Z,6.65
2022-10-24T20:46:13.275Z,6.38
2022-10-24T20:48:42.420Z,6.93
2022-10-24T20:51:15.066Z,6.70
2022-10-24T20:53:44.160Z,6.50
2022-10-24T20:56:14.699Z,6.32
2022-10-24T20:58:45.783Z,7.38
2022-10-24T21:01:16.460Z,7.28
2022-10-24T21:03:45.859Z,6.55
2022-10-24T21:06:18.951Z,6.90
2022-10-24T21:08:49.220Z,6.57
2022-10-24T21:11:24.494Z,5.95
2022-10-24T21:13:56.142Z,5.57
2022-10-24T21:16:25.180Z,6.53
2022-10-24T21:18:53.901Z,5.55
2022-10-24T21:21:22.883Z,6.65
2022-10-24T21:23:52.984Z,6.07
2022-10-24T21:26:21.908Z,5.78
2022-10-24T21:28:54.027Z,6.07
2022-10-24T21:31:29.174Z,6.10
2022-10-24T21:33:57.864Z,5.43
2022-10-24T21:36:26.217Z,5.22
2022-10-24T21:38:56.350Z,5.85
2022-10-24T21:41:25.325Z,5.70
2022-10-24T21:43:54.819Z,4.95
2022-10-24T21:46:24.961Z,5.13
2022-10-24T21:48:56.055Z,5.00
2022-10-24T21:51:26.571Z,4.97
2022-10-24T21:53:57.247Z,5.30
2022-10-24T21:56:27.329Z,4.90
2022-10-24T21:58:59.756Z,4.88
2022-10-24T22:01:29.711Z,5.25
2022-10-24T22:04:00.461Z,5.47
2022-10-24T22:06:30.035Z,5.38
2022-10-24T22:08:58.577Z,5.20
2022-10-24T22:11:29.197Z,5.47
2022-10-24T22:13:58.692Z,6.25
2022-10-24T22:16:30.077Z,6.07
2022-10-24T22:19:02.806Z,5.70
2022-10-24T22:21:32.919Z,5.97
2022-10-24T22:24:04.280Z,6.70
2022-10-24T22:26:33.457Z,6.05
2022-10-24T22:29:02.068Z,5.95
2022-10-24T22:31:31.684Z,5.43
2022-10-24T22:34:02.002Z,6.43
2022-10-24T22:36:43.185Z,6.13
2022-10-24T22:39:15.403Z,5.45
2022-10-24T22:41:44.346Z,5.95
2022-10-24T22:44:15.258Z,5.43
2022-10-24T22:47:02.651Z,6.15
2022-10-24T22:49:39.961Z,6.22
2022-10-24T22:52:11.564Z,6.15
2022-10-24T22:54:40.824Z,5.47
2022-10-24T22:57:09.936Z,7.03
2022-10-24T22:59:39.150Z,6.32
2022-10-24T23:02:20.599Z,5.85
2022-10-24T23:05:01.163Z,7.13
2022-10-24T23:07:37.156Z,6.50
2022-10-24T23:10:07.520Z,6.13
2022-10-24T23:12:36.694Z,6.20
2022-10-24T23:15:06.311Z,5.55
2022-10-24T23:17:35.311Z,5.65
2022-10-24T23:20:14.511Z,6.07
2022-10-24T23:22:48.460Z,5.75
2022-10-24T23:25:23.453Z,5.50
2022-10-24T23:27:58.524Z,5.75
2022-10-24T23:30:27.546Z,6.78
2022-10-24T23:32:56.309Z,6.55
2022-10-24T23:35:26.732Z,5.72
2022-10-24T23:37:55.648Z,6.38
2022-10-24T23:40:32.632Z,6.15
2022-10-24T23:43:01.788Z,5.93
2022-10-24T23:45:36.528Z,5.68
2022-10-24T23:48:22.267Z,5.72
2022-10-24T23:51:00.420Z,6.57
2022-10-24T23:53:38.907Z,5.70
2022-10-24T23:56:10.083Z,6.03
2022-10-24T23:58:38.320Z,5.30
